createdAt,value
2023-03-04T00:02:07.663Z,14.93
2023-03-04T00:05:11.454Z,13.55
2023-03-04T00:08:13.967Z,13.80
2023-03-04T00:11:16.091Z,13.00
2023-03-04T00:14:18.347Z,13.75
2023-03-04T00:17:21.525Z,13.40
2023-03-04T00:20:23.736Z,13.18
2023-03-04T00:23:25.955Z,11.07
2023-03-04T00:26:28.162Z,12.98
2023-03-04T00:29:30.464Z,13.93
2023-03-04T00:32:32.739Z,13.95
2023-03-04T00:35:35.042Z,13.27
2023-03-04T00:38:37.607Z,12.73
2023-03-04T00:41:39.925Z,13.43
2023-03-04T00:44:43.377Z,13.25
2023-03-04T00:47:45.593Z,13.48
2023-03-04T00:50:49.261Z,12.65
2023-03-04T00:53:52.430Z,13.23
2023-03-04T00:56:54.612Z,13.02
2023-03-04T00:59:56.778Z,13.95
2023-03-04T01:02:59.893Z,13.70
2023-03-04T01:06:02.300Z,13.43
2023-03-04T01:09:04.487Z,12.70
2023-03-04T01:12:08.087Z,12.40
2023-03-04T01:15:13.830Z,13.32
2023-03-04T01:18:16.138Z,12.75
2023-03-04T01:21:18.457Z,12.55
2023-03-04T01:24:20.613Z,12.90
2023-03-04T01:27:22.708Z,12.00
2023-03-04T01:30:26.073Z,12.88
2023-03-04T01:33:28.912Z,13.00
2023-03-04T01:36:31.176Z,11.70
2023-03-04T01:39:33.533Z,13.13
2023-03-04T01:42:36.663Z,11.70
2023-03-04T01:45:40.258Z,11.85
2023-03-04T01:48:44.955Z,11.82
2023-03-04T01:51:54.053Z,11.80
2023-03-04T01:54:56.500Z,11.93
2023-03-04T01:57:58.761Z,12.52
2023-03-04T02:01:00.890Z,11.68
2023-03-04T02:04:03.470Z,11.45
2023-03-04T02:07:06.633Z,11.55
2023-03-04T02:10:09.701Z,11.65
2023-03-04T02:13:13.261Z,11.32
2023-03-04T02:16:15.587Z,10.35
2023-03-04T02:19:52.982Z,11.52
2023-03-04T02:23:14.588Z,11.10
2023-03-04T02:26:25.078Z,10.88
2023-03-04T02:29:29.672Z,10.80
2023-03-04T02:32:31.943Z,11.30
2023-03-04T02:35:34.829Z,11.45
2023-03-04T02:38:37.243Z,10.18
2023-03-04T02:41:39.741Z,11.02
2023-03-04T02:44:46.547Z,11.30
2023-03-04T02:47:49.496Z,10.98
2023-03-04T02:50:54.173Z,10.98
2023-03-04T02:53:56.435Z,10.77
2023-03-04T02:57:04.640Z,10.57
2023-03-04T03:00:09.907Z,10.40
2023-03-04T03:03:12.501Z,10.88
2023-03-04T03:06:14.815Z,11.00
2023-03-04T03:09:17.637Z,11.55
2023-03-04T03:12:19.953Z,10.93
2023-03-04T03:15:22.657Z,10.70
2023-03-04T03:18:24.874Z,11.43
2023-03-04T03:21:27.065Z,10.35
2023-03-04T03:24:29.266Z,10.82
2023-03-04T03:27:31.592Z,12.35
2023-03-04T03:30:34.259Z,11.82
2023-03-04T03:33:36.582Z,12.57
2023-03-04T03:36:38.949Z,10.57
2023-03-04T03:39:41.455Z,12.40
2023-03-04T03:42:43.713Z,12.63
2023-03-04T03:45:45.965Z,12.75
2023-03-04T03:48:48.145Z,13.32
2023-03-04T03:51:50.265Z,11.68
2023-03-04T03:54:52.481Z,12.25
2023-03-04T03:57:55.139Z,13.38
2023-03-04T04:00:58.547Z,12.50
2023-03-04T04:04:01.098Z,12.73
2023-03-04T04:07:03.405Z,13.68
2023-03-04T04:10:06.314Z,9.93
2023-03-04T04:13:08.839Z,13.15
2023-03-04T04:16:11.810Z,13.88
2023-03-04T04:19:18.902Z,13.57
2023-03-04T04:22:21.788Z,13.90
2023-03-04T04:25:24.142Z,12.85
2023-03-04T04:28:26.297Z,13.10
2023-03-04T04:31:29.513Z,13.75
2023-03-04T04:34:31.799Z,13.52
2023-03-04T04:37:34.061Z,12.88
2023-03-04T04:40:36.304Z,13.45
2023-03-04T04:43:38.436Z,13.63
2023-03-04T04:46:41.135Z,10.65
2023-03-04T04:49:43.345Z,13.05
2023-03-04T04:52:45.545Z,12.90
2023-03-04T04:55:47.705Z,13.38
2023-03-04T04:58:50.136Z,13.02
2023-03-04T05:01:52.373Z,13.52
2023-03-04T05:04:54.476Z,13.60
2023-03-04T05:07:56.683Z,13.38
2023-03-04T05:10:59.249Z,13.90
2023-03-04T05:14:01.385Z,13.35
2023-03-04T05:17:04.115Z,13.43
2023-03-04T05:20:07.271Z,12.13
2023-03-04T05:23:09.505Z,13.20
2023-03-04T05:26:15.288Z,14.45
2023-03-04T05:29:17.483Z,13.73
2023-03-04T05:32:19.835Z,13.95
2023-03-04T05:35:22.188Z,13.13
2023-03-04T05:38:25.676Z,13.63
2023-03-04T05:41:27.948Z,14.07
2023-03-04T05:44:30.106Z,13.50
2023-03-04T05:47:32.451Z,13.70
2023-03-04T05:50:35.102Z,14.30
2023-03-04T05:53:37.770Z,13.88
2023-03-04T05:56:39.909Z,14.60
2023-03-04T05:59:42.059Z,13.18
2023-03-04T06:02:45.055Z,13.80
2023-03-04T06:05:48.234Z,12.25
2023-03-04T06:08:50.441Z,14.35
2023-03-04T06:11:52.618Z,14.52
2023-03-04T06:14:55.345Z,13.68
2023-03-04T06:17:57.606Z,14.23
2023-03-04T06:21:01.676Z,13.98
2023-03-04T06:24:04.039Z,13.88
2023-03-04T06:27:06.407Z,13.23
2023-03-04T06:30:09.442Z,13.32
2023-03-04T06:33:11.961Z,14.10
2023-03-04T06:36:14.147Z,14.38
2023-03-04T06:39:16.503Z,14.07
2023-03-04T06:42:19.573Z,14.18
2023-03-04T06:45:21.739Z,14.15
2023-03-04T06:48:23.867Z,14.68
2023-03-04T06:51:26.150Z,12.02
2023-03-04T06:54:28.337Z,14.23
2023-03-04T06:57:30.451Z,13.48
2023-03-04T07:00:32.678Z,13.23
2023-03-04T07:03:34.869Z,11.80
2023-03-04T07:06:37.012Z,12.43
2023-03-04T07:09:39.423Z,13.65
2023-03-04T07:12:41.585Z,12.73
2023-03-04T07:15:43.781Z,12.52
2023-03-04T07:18:46.712Z,13.48
2023-03-04T07:21:48.900Z,12.90
2023-03-04T07:24:51.069Z,12.65
2023-03-04T07:27:54.178Z,12.80
2023-03-04T07:30:56.288Z,14.20
2023-03-04T07:34:03.899Z,14.27
2023-03-04T07:37:06.274Z,14.25
2023-03-04T07:40:09.356Z,11.95
2023-03-04T07:43:12.781Z,14.95
2023-03-04T07:46:15.495Z,13.82
2023-03-04T07:49:17.715Z,14.45
2023-03-04T07:52:20.227Z,13.70
2023-03-04T07:55:22.318Z,12.57
2023-03-04T07:58:24.942Z,14.02
2023-03-04T08:01:29.987Z,14.82
2023-03-04T08:04:32.312Z,13.23
2023-03-04T08:07:34.713Z,15.10
2023-03-04T08:10:39.861Z,12.25
2023-03-04T08:13:42.430Z,12.98
2023-03-04T08:16:44.687Z,13.43
2023-03-04T08:19:46.877Z,11.93
2023-03-04T08:22:49.032Z,11.40
2023-03-04T08:25:51.411Z,13.38
2023-03-04T08:28:55.028Z,13.13
2023-03-04T08:31:57.546Z,11.77
2023-03-04T08:35:02.481Z,12.25
2023-03-04T08:38:05.646Z,11.43
2023-03-04T08:41:07.903Z,11.65
2023-03-04T08:44:11.053Z,12.80
2023-03-04T08:47:13.467Z,12.52
2023-03-04T08:50:15.844Z,13.68
2023-03-04T08:53:18.862Z,13.60
2023-03-04T08:56:21.206Z,14.48
2023-03-04T08:59:23.360Z,14.32
2023-03-04T09:02:25.584Z,14.13
2023-03-04T09:05:27.718Z,12.18
2023-03-04T09:08:30.303Z,14.30
2023-03-04T09:11:32.520Z,13.35
2023-03-04T09:14:35.972Z,12.23
2023-03-04T09:17:38.543Z,12.70
2023-03-04T09:20:41.192Z,12.95
2023-03-04T09:23:43.510Z,12.68
2023-03-04T09:26:46.122Z,12.02
2023-03-04T09:29:48.373Z,14.05
2023-03-04T09:32:50.636Z,13.43
2023-03-04T09:35:53.023Z,14.68
2023-03-04T09:38:55.210Z,13.27
2023-03-04T09:41:59.014Z,14.32
2023-03-04T09:45:03.321Z,14.05
2023-03-04T09:48:07.071Z,11.98
2023-03-04T09:51:18.673Z,13.80
2023-03-04T09:54:39.539Z,14.60
2023-03-04T09:57:48.987Z,13.00
2023-03-04T10:01:05.296Z,15.30
2023-03-04T10:04:20.514Z,13.38
2023-03-04T10:07:45.574Z,14.02
2023-03-04T10:10:50.754Z,13.10
2023-03-04T10:14:16.558Z,12.38
2023-03-04T10:17:37.168Z,13.32
2023-03-04T10:20:54.375Z,11.23
2023-03-04T10:23:59.765Z,12.15
2023-03-04T10:27:07.173Z,13.20
2023-03-04T10:30:37.757Z,12.48
2023-03-04T10:33:41.274Z,15.20
2023-03-04T10:36:55.537Z,14.70
2023-03-04T10:40:01.525Z,15.80
2023-03-04T10:43:08.147Z,15.02
2023-03-04T10:46:12.533Z,13.05
2023-03-04T10:49:20.180Z,13.93
2023-03-04T10:52:22.287Z,14.88
2023-03-04T10:55:29.822Z,15.20
2023-03-04T10:58:31.997Z,12.10
2023-03-04T11:01:35.082Z,15.02
2023-03-04T11:04:37.180Z,13.90
2023-03-04T11:07:54.659Z,13.23
2023-03-04T11:10:58.168Z,13.18
2023-03-04T11:14:08.966Z,13.07
2023-03-04T11:17:21.912Z,13.00
2023-03-04T11:20:42.711Z,12.48
2023-03-04T11:23:53.294Z,11.70
2023-03-04T11:27:06.666Z,12.57
2023-03-04T11:30:30.017Z,13.95
2023-03-04T11:33:49.858Z,13.88
2023-03-04T11:36:57.991Z,13.60
2023-03-04T11:40:27.791Z,12.70
2023-03-04T11:43:37.107Z,11.63
2023-03-04T11:46:59.275Z,13.57
2023-03-04T11:50:45.722Z,12.45
2023-03-04T11:53:57.849Z,13.70
2023-03-04T11:57:05.185Z,14.25
2023-03-04T12:00:31.169Z,13.32
2023-03-04T12:03:59.099Z,13.07
2023-03-04T12:07:09.587Z,13.43
2023-03-04T12:10:32.866Z,11.55
2023-03-04T12:14:09.535Z,13.98
2023-03-04T12:17:26.748Z,14.07
2023-03-04T12:21:02.309Z,13.93
2023-03-04T12:24:42.650Z,13.05
2023-03-04T12:31:37.075Z,13.50
2023-03-04T12:34:53.046Z,13.40
2023-03-04T12:38:14.033Z,13.57
2023-03-04T12:41:28.513Z,13.68
2023-03-04T12:44:48.235Z,12.38
2023-03-04T12:47:59.335Z,14.13
2023-03-04T12:51:10.984Z,14.32
2023-03-04T12:54:16.032Z,14.02
2023-03-04T12:57:26.456Z,15.13
2023-03-04T13:00:35.018Z,14.82
2023-03-04T13:04:08.255Z,14.63
2023-03-04T13:07:29.022Z,13.77
2023-03-04T13:10:31.747Z,14.30
2023-03-04T13:13:42.403Z,13.07
2023-03-04T13:16:47.143Z,13.45
2023-03-04T13:19:49.300Z,14.93
2023-03-04T13:22:54.532Z,13.45
2023-03-04T13:25:56.713Z,15.30
2023-03-04T13:29:11.044Z,13.93
2023-03-04T13:32:13.465Z,14.73
2023-03-04T13:35:46.976Z,15.38
2023-03-04T13:39:33.220Z,15.95
2023-03-04T13:42:43.389Z,15.65
2023-03-04T13:48:50.371Z,12.98
2023-03-04T13:51:53.074Z,11.73
2023-03-04T13:55:30.305Z,12.13
2023-03-04T13:58:33.774Z,10.45
2023-03-04T14:01:37.659Z,12.70
2023-03-04T14:04:42.363Z,12.90
2023-03-04T14:07:44.651Z,12.23
2023-03-04T14:10:56.187Z,13.32
2023-03-04T14:14:03.244Z,15.15
2023-03-04T14:17:06.954Z,13.98
2023-03-04T14:20:35.020Z,14.73
2023-03-04T14:23:37.267Z,16.17
2023-03-04T14:26:39.684Z,16.27
2023-03-04T14:29:41.881Z,16.67
2023-03-04T14:32:44.178Z,16.52
2023-03-04T14:35:53.316Z,16.45
2023-03-04T14:39:06.900Z,16.50
2023-03-04T14:42:13.491Z,15.23
2023-03-04T14:45:17.449Z,16.33
2023-03-04T14:48:41.000Z,16.10
2023-03-04T14:51:48.979Z,17.15
2023-03-04T14:55:02.177Z,17.35
2023-03-04T14:58:29.100Z,16.95
2023-03-04T15:01:36.071Z,17.23
2023-03-04T15:04:41.126Z,16.98
2023-03-04T15:07:43.694Z,16.45
2023-03-04T15:10:55.896Z,17.15
2023-03-04T15:13:59.819Z,16.80
2023-03-04T15:17:02.049Z,17.30
2023-03-04T15:20:07.310Z,16.90
2023-03-04T15:23:14.729Z,17.10
2023-03-04T15:26:16.989Z,16.60
2023-03-04T15:29:20.988Z,16.35
2023-03-04T15:32:24.144Z,17.35
2023-03-04T15:35:29.895Z,15.90
2023-03-04T15:38:32.243Z,17.10
2023-03-04T15:41:34.891Z,17.55
2023-03-04T15:44:36.946Z,16.90
2023-03-04T15:47:39.075Z,16.85
2023-03-04T15:50:56.368Z,16.35
2023-03-04T15:54:00.236Z,18.90
2023-03-04T15:57:04.022Z,16.92
2023-03-04T16:00:06.990Z,16.95
2023-03-04T16:03:16.493Z,15.85
2023-03-04T16:06:23.422Z,15.95
2023-03-04T16:09:26.556Z,17.05
2023-03-04T16:12:29.312Z,16.58
2023-03-04T16:15:34.378Z,15.98
2023-03-04T16:18:36.669Z,15.68
2023-03-04T16:21:38.793Z,16.55
2023-03-04T16:24:41.385Z,16.42
2023-03-04T16:27:43.826Z,16.58
2023-03-04T16:30:46.416Z,16.75
2023-03-04T16:33:48.576Z,16.13
2023-03-04T16:36:50.775Z,17.60
2023-03-04T16:39:52.960Z,17.02
2023-03-04T16:42:55.692Z,17.60
2023-03-04T16:45:57.857Z,16.70
2023-03-04T16:48:59.900Z,16.30
2023-03-04T16:52:02.158Z,16.20
2023-03-04T16:55:04.816Z,17.85
2023-03-04T16:58:08.385Z,17.58
2023-03-04T17:01:19.852Z,16.60
2023-03-04T17:04:22.962Z,16.40
2023-03-04T17:07:25.441Z,17.80
2023-03-04T17:10:27.849Z,18.60
2023-03-04T17:13:33.142Z,16.88
2023-03-04T17:16:38.460Z,18.10
2023-03-04T17:19:41.271Z,16.23
2023-03-04T17:22:43.980Z,16.90
2023-03-04T17:25:54.658Z,17.85
2023-03-04T17:28:57.920Z,17.58
2023-03-04T17:32:00.408Z,16.90
2023-03-04T17:35:03.365Z,17.13
2023-03-04T17:38:06.418Z,17.65
2023-03-04T17:41:16.193Z,18.58
2023-03-04T17:44:19.497Z,18.10
2023-03-04T17:47:23.286Z,17.95
2023-03-04T17:50:25.538Z,18.38
2023-03-04T17:53:28.858Z,17.65
2023-03-04T17:56:32.761Z,16.13
2023-03-04T17:59:34.886Z,17.52
2023-03-04T18:02:36.962Z,17.33
2023-03-04T18:05:39.860Z,19.17
2023-03-04T18:08:46.214Z,20.17
2023-03-04T18:11:49.024Z,21.85
2023-03-04T18:14:51.173Z,20.48
2023-03-04T18:17:53.279Z,21.63
2023-03-04T18:20:59.477Z,20.67
2023-03-04T18:24:01.887Z,20.27
2023-03-04T18:27:04.036Z,21.38
2023-03-04T18:30:13.368Z,20.25
2023-03-04T18:33:15.561Z,21.30
2023-03-04T18:36:17.729Z,21.10
2023-03-04T18:39:19.948Z,21.30
2023-03-04T18:42:22.136Z,20.35
2023-03-04T18:45:24.315Z,20.67
2023-03-04T18:48:26.582Z,20.88
2023-03-04T18:51:29.062Z,20.88
2023-03-04T18:54:31.195Z,19.33
2023-03-04T18:57:33.571Z,18.70
2023-03-04T19:00:35.852Z,20.10
2023-03-04T19:03:38.996Z,20.50
2023-03-04T19:06:41.373Z,19.25
2023-03-04T19:09:43.546Z,20.30
2023-03-04T19:12:46.055Z,19.17
2023-03-04T19:15:48.601Z,19.88
2023-03-04T19:18:50.792Z,19.40
2023-03-04T19:21:53.018Z,20.70
2023-03-04T19:24:55.207Z,21.08
2023-03-04T19:27:57.347Z,19.50
2023-03-04T19:31:04.512Z,18.27
2023-03-04T19:34:06.678Z,18.95
2023-03-04T19:37:09.086Z,19.20
2023-03-04T19:40:12.196Z,18.58
2023-03-04T19:43:15.154Z,19.48
2023-03-04T19:46:17.455Z,20.08
2023-03-04T19:49:19.917Z,19.20
2023-03-04T19:52:22.118Z,18.67
2023-03-04T19:55:24.923Z,17.80
2023-03-04T19:58:27.205Z,19.42
2023-03-04T20:01:34.901Z,18.70
2023-03-04T20:04:37.148Z,19.00
2023-03-04T20:07:40.435Z,18.70
2023-03-04T20:10:42.838Z,19.35
2023-03-04T20:13:45.020Z,19.83
2023-03-04T20:16:48.104Z,18.50
2023-03-04T20:19:50.325Z,19.05
2023-03-04T20:22:52.440Z,19.10
2023-03-04T20:25:55.890Z,18.92
2023-03-04T20:28:58.721Z,18.25
2023-03-04T20:32:01.619Z,17.95
2023-03-04T20:35:04.076Z,20.70
2023-03-04T20:38:06.956Z,20.30
2023-03-04T20:41:09.200Z,19.40
2023-03-04T20:44:11.362Z,20.48
2023-03-04T20:47:13.539Z,20.17
2023-03-04T20:50:16.563Z,19.65
2023-03-04T20:53:18.734Z,19.65
2023-03-04T20:56:21.073Z,19.80
2023-03-04T20:59:23.340Z,18.52
2023-03-04T21:02:25.655Z,19.45
2023-03-04T21:05:28.124Z,19.48
2023-03-04T21:08:30.716Z,19.13
2023-03-04T21:11:40.378Z,18.75
2023-03-04T21:14:42.669Z,20.33
2023-03-04T21:17:44.847Z,19.90
2023-03-04T21:20:48.550Z,20.83
2023-03-04T21:23:52.682Z,20.00
2023-03-04T21:26:54.999Z,21.33
2023-03-04T21:29:57.469Z,20.75
2023-03-04T21:33:00.504Z,21.70
2023-03-04T21:36:02.688Z,21.92
2023-03-04T21:39:04.840Z,22.13
2023-03-04T21:42:07.107Z,21.63
2023-03-04T21:45:10.891Z,22.10
2023-03-04T21:48:13.068Z,21.10
2023-03-04T21:51:16.811Z,23.65
2023-03-04T21:54:19.335Z,22.40
2023-03-04T21:57:21.514Z,21.85
2023-03-04T22:00:23.832Z,22.67
2023-03-04T22:03:27.265Z,21.15
2023-03-04T22:06:30.609Z,21.83
2023-03-04T22:09:33.557Z,22.15
2023-03-04T22:12:35.679Z,22.95
2023-03-04T22:15:39.759Z,24.27
2023-03-04T22:18:42.483Z,21.95
2023-03-04T22:21:44.636Z,20.83
2023-03-04T22:24:46.849Z,23.52
2023-03-04T22:27:49.021Z,21.50
2023-03-04T22:30:51.264Z,24.10
2023-03-04T22:33:53.489Z,25.70
2023-03-04T22:36:55.706Z,24.00
2023-03-04T22:39:58.092Z,23.45
2023-03-04T22:43:00.346Z,26.00
2023-03-04T22:46:30.458Z,26.63
2023-03-04T22:49:33.527Z,21.65
2023-03-04T22:52:35.741Z,19.98
2023-03-04T22:55:38.193Z,18.85
2023-03-04T22:58:41.522Z,19.35
2023-03-04T23:01:43.735Z,19.77
2023-03-04T23:04:45.849Z,22.90
2023-03-04T23:07:49.289Z,18.77
2023-03-04T23:10:51.492Z,23.20
2023-03-04T23:13:54.788Z,20.40
2023-03-04T23:16:56.975Z,21.50
2023-03-04T23:19:59.164Z,22.15
2023-03-04T23:23:01.348Z,20.25
2023-03-04T23:26:04.809Z,20.33
2023-03-04T23:29:09.716Z,18.50
2023-03-04T23:32:12.005Z,22.27
2023-03-04T23:35:14.282Z,18.25
2023-03-04T23:38:16.490Z,19.70
2023-03-04T23:41:24.653Z,16.92
2023-03-04T23:44:27.003Z,18.08
2023-03-04T23:47:29.646Z,16.70
2023-03-04T23:50:32.371Z,19.08
2023-03-04T23:53:34.634Z,22.38
2023-03-04T23:56:36.822Z,18.85
2023-03-04T23:59:39.827Z,19.15
